Time;durP1;ratioP1;P1;durP2;ratioP2;P2;SDS_P1;SDS_P2;PMS_P1;PMS_P2;Temp;Humidity;BMP_temperature;BMP_pressure;BME280_temperature;BME280_humidity;BME280_pressure;Samples;Min_cycle;Max_cycle;Signal;HPM_P1;HPM_P2
2022/04/05 00:01:32;;;;;;;;;10.00;10.00;;;;;12.32;57.89;100938.97;146607;563;46021;-68
2022/04/05 00:04:24;;;;;;;;;16.00;14.75;;;;;12.35;57.90;100955.59;146604;618;46010;-67
2022/04/05 00:07:16;;;;;;;;;11.25;11.00;;;;;12.39;56.90;100939.31;146607;564;46021;-69
2022/04/05 00:10:09;;;;;;;;;11.75;9.25;;;;;12.43;58.99;100916.97;146602;595;46016;-66
2022/04/05 00:13:01;;;;;;;;;10.75;10.00;;;;;12.41;57.88;100916.00;146609;615;46021;-67
2022/04/05 00:15:53;;;;;;;;;10.00;10.00;;;;;12.38;58.15;100911.53;146606;571;46010;-66
2022/04/05 00:18:45;;;;;;;;;15.50;14.25;;;;;12.33;57.91;100899.13;146603;605;46020;-67
2022/04/05 00:21:38;;;;;;;;;14.50;12.75;;;;;12.32;58.48;100879.16;146603;601;46012;-67
2022/04/05 00:24:30;;;;;;;;;14.00;11.00;;;;;12.28;57.90;100900.66;146607;580;46020;-66
2022/04/05 00:27:22;;;;;;;;;13.50;11.75;;;;;12.30;57.68;100886.00;146604;595;46914;-66
2022/04/05 00:30:15;;;;;;;;;13.50;9.25;;;;;12.31;57.68;100880.87;146603;591;47012;-66
2022/04/05 00:33:07;;;;;;;;;64.50;50.75;;;;;12.35;57.92;100875.00;146602;569;46016;-66
2022/04/05 00:35:59;;;;;;;;;11.00;9.50;;;;;12.35;58.50;100862.00;146608;609;46020;-66
2022/04/05 00:38:52;;;;;;;;;11.00;9.00;;;;;12.34;57.72;100877.53;146601;596;46016;-66
2022/04/05 00:41:44;;;;;;;;;10.75;9.75;;;;;12.33;57.36;100879.22;146603;590;47008;-66
2022/04/05 00:44:36;;;;;;;;;17.00;15.25;;;;;12.34;58.78;100862.81;146602;610;46017;-67
2022/04/05 00:47:29;;;;;;;;;8.75;8.75;;;;;12.33;58.09;100868.81;146604;566;46008;-67
2022/04/05 00:50:25;;;;;;;;;14.25;12.00;;;;;12.32;58.04;100850.56;146605;599;46017;-68
2022/04/05 00:53:19;;;;;;;;;9.50;8.25;;;;;12.30;59.07;100854.78;146608;576;46020;-68
2022/04/05 00:56:12;;;;;;;;;10.00;9.00;;;;;12.22;60.02;100823.25;146602;639;47010;-68
2022/04/05 00:59:07;;;;;;;;;7.75;7.75;;;;;12.16;59.24;100826.44;146608;611;46012;-66
2022/04/05 01:02:00;;;;;;;;;12.50;11.25;;;;;12.11;59.53;100837.44;146603;571;46016;-67
2022/04/05 01:04:52;;;;;;;;;9.50;9.50;;;;;12.08;58.91;100845.09;146607;604;47008;-67
2022/04/05 01:07:46;;;;;;;;;9.75;8.75;;;;;12.09;59.13;100840.00;146604;710;46016;-67
2022/04/05 01:10:39;;;;;;;;;11.25;10.00;;;;;12.09;59.58;100833.91;146604;571;46020;-66
2022/04/05 01:13:32;;;;;;;;;10.00;9.25;;;;;12.06;59.87;100847.66;146602;570;46017;-66
2022/04/05 01:16:25;;;;;;;;;9.50;9.50;;;;;12.03;58.75;100857.91;146606;599;46020;-67
2022/04/05 01:19:17;;;;;;;;;11.75;10.75;;;;;12.02;59.04;100848.28;146605;606;46016;-69
2022/04/05 01:22:10;;;;;;;;;12.75;9.25;;;;;12.01;59.77;100834.41;146607;572;47008;-67
2022/04/05 01:25:02;;;;;;;;;9.75;9.25;;;;;12.01;60.24;100839.63;146603;571;46016;-67
2022/04/05 01:27:55;;;;;;;;;11.25;10.00;;;;;11.96;59.96;100815.12;146609;573;45021;-66
2022/04/05 01:30:48;;;;;;;;;12.75;12.75;;;;;11.95;59.41;100821.13;146602;576;47010;-67
2022/04/05 01:33:39;;;;;;;;;17.50;16.25;;;;;11.96;59.51;100829.81;146607;667;47008;-68
2022/04/05 01:36:32;;;;;;;;;11.25;10.25;;;;;11.96;60.37;100824.63;146603;564;46915;-67
2022/04/05 01:39:26;;;;;;;;;9.50;9.00;;;;;11.93;60.49;100819.28;146606;573;46008;-67
2022/04/05 01:42:19;;;;;;;;;9.00;8.00;;;;;11.88;63.00;100805.19;146606;641;46031;-67
2022/04/05 01:45:12;;;;;;;;;12.75;8.25;;;;;11.82;62.17;100797.06;146603;583;46021;-67
2022/04/05 01:48:04;;;;;;;;;10.25;9.00;;;;;11.73;62.31;100792.34;146605;600;46010;-66
2022/04/05 01:50:55;;;;;;;;;10.00;7.75;;;;;11.68;62.61;100788.63;146608;579;46008;-66
2022/04/05 01:53:48;;;;;;;;;8.25;7.25;;;;;11.61;62.53;100781.34;146605;671;46010;-66
2022/04/05 01:56:51;;;;;;;;;7.75;7.75;;;;;11.55;60.25;100790.63;146608;604;46008;-67
2022/04/05 01:59:44;;;;;;;;;7.50;7.25;;;;;11.54;61.50;100795.75;146602;564;46010;-68
2022/04/05 02:02:36;;;;;;;;;9.50;8.25;;;;;11.59;61.11;100812.47;146607;591;47008;-68
2022/04/05 02:05:28;;;;;;;;;14.25;12.00;;;;;11.60;61.02;100810.75;146605;608;47011;-68
2022/04/05 02:08:20;;;;;;;;;11.00;10.00;;;;;11.62;61.54;100809.09;146606;700;46012;-67
2022/04/05 02:11:13;;;;;;;;;12.75;9.75;;;;;11.64;61.48;100804.88;146603;588;46016;-68
2022/04/05 02:14:07;;;;;;;;;10.50;8.75;;;;;11.62;62.59;100801.31;146603;571;46021;-67
2022/04/05 02:16:59;;;;;;;;;11.50;8.75;;;;;11.58;61.52;100797.69;146604;580;46016;-68
2022/04/05 02:19:51;;;;;;;;;8.25;7.25;;;;;11.59;61.61;100804.66;146609;576;45021;-69
2022/04/05 02:22:43;;;;;;;;;7.00;6.50;;;;;11.59;61.75;100808.94;146601;597;46016;-68
2022/04/05 02:25:35;;;;;;;;;7.00;7.00;;;;;11.60;61.18;100823.72;146605;611;47012;-68
2022/04/05 02:28:28;;;;;;;;;20.00;18.25;;;;;11.60;61.22;100824.63;146602;594;46012;-69
2022/04/05 02:31:21;;;;;;;;;25.25;23.75;;;;;11.60;61.13;100815.94;146607;644;46020;-68
2022/04/05 02:34:13;;;;;;;;;40.75;34.50;;;;;11.63;60.91;100816.09;146605;683;46016;-68
2022/04/05 02:37:06;;;;;;;;;15.75;15.00;;;;;11.67;61.64;100792.03;146608;620;46008;-69
2022/04/05 02:39:58;;;;;;;;;15.50;14.25;;;;;11.67;61.07;100794.62;146603;591;46016;-69
2022/04/05 02:42:51;;;;;;;;;14.25;12.75;;;;;11.70;60.43;100807.78;146601;667;46021;-68
2022/04/05 02:45:43;;;;;;;;;13.50;13.25;;;;;11.72;60.08;100800.94;146603;592;46012;-67
2022/04/05 02:48:35;;;;;;;;;11.75;11.50;;;;;11.77;60.38;100796.84;146606;574;46020;-69
2022/04/05 02:51:28;;;;;;;;;11.75;9.75;;;;;11.80;60.06;100794.38;146604;621;46031;-68
2022/04/05 02:54:19;;;;;;;;;12.00;12.00;;;;;11.83;60.42;100789.34;146604;607;46008;-67
2022/04/05 02:57:12;;;;;;;;;12.00;11.00;;;;;11.83;60.43;100765.97;146605;585;46016;-67
2022/04/05 03:00:04;;;;;;;;;14.00;11.25;;;;;11.80;60.74;100773.59;146607;603;46020;-67
2022/04/05 03:02:56;;;;;;;;;12.50;11.25;;;;;11.76;61.81;100759.59;146604;577;47010;-66
2022/04/05 03:05:48;;;;;;;;;9.75;9.00;;;;;11.70;60.39;100758.41;146606;575;47008;-66
2022/04/05 03:08:42;;;;;;;;;10.25;8.25;;;;;11.68;60.28;100768.75;146602;699;46016;-67
2022/04/05 03:11:34;;;;;;;;;9.75;7.75;;;;;11.71;59.96;100775.78;146607;566;45021;-67
2022/04/05 03:14:27;;;;;;;;;13.75;10.50;;;;;11.78;59.76;100778.75;146603;603;46016;-68
2022/04/05 03:17:18;;;;;;;;;14.00;12.25;;;;;11.83;59.43;100784.16;146604;652;46020;-68
2022/04/05 03:20:12;;;;;;;;;21.00;17.75;;;;;11.88;59.96;100789.59;146602;651;46016;-68
2022/04/05 03:23:04;;;;;;;;;17.25;14.25;;;;;11.92;59.08;100778.53;146607;662;46020;-69
2022/04/05 03:25:56;;;;;;;;;25.00;23.75;;;;;11.96;59.67;100796.94;146602;725;46025;-67
2022/04/05 03:28:49;;;;;;;;;12.00;11.25;;;;;11.93;60.18;100790.69;146607;633;46020;-68
2022/04/05 03:31:41;;;;;;;;;13.50;12.25;;;;;11.88;59.55;100787.00;146603;586;46016;-68
2022/04/05 03:34:33;;;;;;;;;17.25;12.00;;;;;11.81;59.74;100770.22;146608;583;46021;-67
2022/04/05 03:37:25;;;;;;;;;9.50;8.50;;;;;11.79;59.51;100774.44;146603;685;46016;-68
2022/04/05 03:40:17;;;;;;;;;10.25;10.25;;;;;11.77;59.57;100778.66;146605;581;46020;-68
2022/04/05 03:43:12;;;;;;;;;8.75;7.75;;;;;11.78;59.78;100783.06;146605;611;46010;-69
2022/04/05 03:46:04;;;;;;;;;9.50;7.00;;;;;11.77;59.49;100791.66;146608;692;46027;-67
2022/04/05 03:48:56;;;;;;;;;12.00;10.25;;;;;11.77;59.64;100786.44;146606;635;46010;-66
2022/04/05 03:51:48;;;;;;;;;14.25;11.25;;;;;11.76;60.09;100787.28;146607;581;46008;-68
2022/04/05 03:54:40;;;;;;;;;9.75;9.50;;;;;11.74;60.28;100787.22;146607;616;46010;-67
2022/04/05 03:57:32;;;;;;;;;15.00;12.00;;;;;11.69;60.89;100778.31;146605;569;46021;-67
2022/04/05 04:00:24;;;;;;;;;12.75;12.00;;;;;11.65;60.94;100784.19;146603;586;46016;-67
2022/04/05 04:03:17;;;;;;;;;9.50;9.00;;;;;11.55;62.06;100785.44;146605;651;46021;-67
2022/04/05 04:06:09;;;;;;;;;11.00;9.50;;;;;11.46;62.38;100787.56;146603;651;46010;-66
2022/04/05 04:09:01;;;;;;;;;11.00;10.00;;;;;11.39;61.28;100792.41;146605;577;46020;-67
2022/04/05 04:11:53;;;;;;;;;10.75;9.75;;;;;11.37;61.20;100805.34;146604;575;46016;-66
2022/04/05 04:14:45;;;;;;;;;14.75;12.00;;;;;11.37;61.17;100792.34;146604;636;46020;-67
2022/04/05 04:17:38;;;;;;;;;14.25;11.75;;;;;11.40;61.36;100783.78;146603;635;47011;-67
2022/04/05 04:20:30;;;;;;;;;12.25;10.25;;;;;11.40;61.54;100797.69;146606;633;46021;-69
2022/04/05 04:23:23;;;;;;;;;13.00;10.75;;;;;11.39;62.15;100790.69;146603;626;46016;-68
2022/04/05 04:26:15;;;;;;;;;10.75;9.25;;;;;11.36;61.68;100784.47;146603;571;47008;-68
2022/04/05 04:29:07;;;;;;;;;13.00;11.00;;;;;11.34;61.64;100779.22;146604;603;47010;-68
2022/04/05 04:31:59;;;;;;;;;12.25;10.50;;;;;11.35;61.87;100777.50;146606;580;46020;-67
2022/04/05 04:34:52;;;;;;;;;9.75;9.75;;;;;11.33;63.13;100764.44;146602;579;46016;-67
2022/04/05 04:37:44;;;;;;;;;14.75;10.25;;;;;11.32;62.49;100754.88;146605;580;47008;-67
2022/04/05 04:40:36;;;;;;;;;15.50;14.50;;;;;11.30;62.52;100762.56;146598;573;47915;-67
2022/04/05 04:43:28;;;;;;;;;14.00;12.25;;;;;11.32;62.33;100754.88;146605;665;47020;-67
2022/04/05 04:46:21;;;;;;;;;13.25;12.00;;;;;11.31;61.92;100759.19;146607;586;46010;-67
2022/04/05 04:49:13;;;;;;;;;14.00;13.00;;;;;11.37;61.66;100776.78;146602;595;47008;-67
2022/04/05 04:52:06;;;;;;;;;18.00;12.75;;;;;11.43;61.65;100790.06;146605;717;47010;-68
2022/04/05 04:54:58;;;;;;;;;13.50;13.00;;;;;11.52;62.42;100800.84;146602;569;46008;-69
2022/04/05 04:57:51;;;;;;;;;16.75;14.00;;;;;11.56;62.61;100822.69;146604;615;47010;-68
2022/04/05 05:00:42;;;;;;;;;15.75;14.75;;;;;11.54;63.57;100827.81;146606;602;46020;-68
2022/04/05 05:03:34;;;;;;;;;15.00;13.25;;;;;11.57;62.61;100835.75;146601;569;46017;-68
2022/04/05 05:06:27;;;;;;;;;17.50;16.50;;;;;11.54;62.04;100840.78;146604;592;46020;-68
2022/04/05 05:09:19;;;;;;;;;14.75;12.50;;;;;11.57;62.84;100845.25;146600;585;47010;-68
2022/04/05 05:12:11;;;;;;;;;16.00;15.75;;;;;11.60;62.85;100852.31;146608;569;45021;-69
2022/04/05 05:15:04;;;;;;;;;14.75;13.50;;;;;11.62;62.13;100837.66;146605;643;46010;-68
2022/04/05 05:17:56;;;;;;;;;18.50;17.25;;;;;11.69;62.22;100848.44;146607;573;46021;-68
2022/04/05 05:20:48;;;;;;;;;20.75;18.50;;;;;11.78;61.37;100859.28;146605;624;46012;-68
2022/04/05 05:23:40;;;;;;;;;17.25;15.00;;;;;11.86;61.52;100851.88;146604;598;46020;-68
2022/04/05 05:26:33;;;;;;;;;19.50;16.00;;;;;11.96;61.07;100851.53;146606;564;46016;-67
2022/04/05 05:29:24;;;;;;;;;15.00;11.50;;;;;12.06;60.02;100841.56;146605;641;46020;-67
2022/04/05 05:32:17;;;;;;;;;20.25;15.75;;;;;12.19;59.52;100854.31;146602;601;46010;-68
2022/04/05 05:35:09;;;;;;;;;17.75;15.75;;;;;12.33;59.07;100831.53;146602;696;46020;-68
2022/04/05 05:38:01;;;;;;;;;14.50;13.50;;;;;12.48;58.56;100830.50;146606;566;46914;-68
2022/04/05 05:40:53;;;;;;;;;17.25;15.00;;;;;12.61;57.85;100829.34;146608;584;46008;-68
2022/04/05 05:43:45;;;;;;;;;12.00;11.00;;;;;12.66;57.67;100833.06;146605;575;46016;-68
2022/04/05 05:46:37;;;;;;;;;10.75;10.75;;;;;12.71;57.28;100841.97;146608;570;45021;-68
2022/04/05 05:49:30;;;;;;;;;6.25;5.75;;;;;12.80;57.14;100832.75;146602;591;46017;-68
2022/04/05 05:52:22;;;;;;;;;13.25;10.50;;;;;12.89;57.18;100831.44;146607;604;46008;-68
2022/04/05 05:55:15;;;;;;;;;12.50;11.50;;;;;13.01;56.85;100846.72;146603;587;46915;-67
2022/04/05 05:58:08;;;;;;;;;12.25;12.00;;;;;13.11;56.68;100854.09;146604;645;47008;-68
2022/04/05 06:01:00;;;;;;;;;17.50;14.00;;;;;13.19;56.34;100846.63;146602;691;47010;-67
2022/04/05 06:03:52;;;;;;;;;16.50;13.75;;;;;13.26;56.17;100853.91;146604;586;46019;-69
2022/04/05 06:06:44;;;;;;;;;18.50;16.75;;;;;13.34;56.17;100852.50;146603;601;46016;-69
2022/04/05 06:09:36;;;;;;;;;15.50;14.50;;;;;13.40;56.02;100841.47;146607;583;47008;-69
2022/04/05 06:12:28;;;;;;;;;16.00;12.75;;;;;13.49;55.90;100841.84;146603;614;47010;-69
2022/04/05 06:15:23;;;;;;;;;13.75;12.75;;;;;13.55;55.58;100826.47;146604;579;46020;-69
2022/04/05 06:18:21;;;;;;;;;15.75;15.00;;;;;11.68;55.70;100484.72;146601;601;46016;-69
2022/04/05 06:21:14;;;;;;;;;19.00;17.75;;;;;13.63;55.58;100811.13;146603;586;46020;-68
2022/04/05 06:24:06;;;;;;;;;22.25;19.00;;;;;12.81;55.38;100655.91;146603;658;46016;-69
2022/04/05 06:26:58;;;;;;;;;19.00;19.00;;;;;13.79;55.64;100807.41;146604;578;46020;-69
2022/04/05 06:29:50;;;;;;;;;14.25;14.00;;;;;13.88;55.08;100796.47;146601;571;46016;-68
2022/04/05 06:32:42;;;;;;;;;11.00;11.00;;;;;14.02;55.57;100800.53;146606;593;46008;-68
2022/04/05 06:35:35;;;;;;;;;14.25;12.75;;;;;14.19;56.04;100815.06;146602;638;46016;-67
2022/04/05 06:38:28;;;;;;;;;13.50;12.25;;;;;14.41;55.96;100811.53;146606;571;47008;-67
2022/04/05 06:41:20;;;;;;;;;8.75;8.00;;;;;14.65;56.67;100814.22;146603;564;46017;-67
2022/04/05 06:44:12;;;;;;;;;16.00;14.00;;;;;14.91;55.49;100809.00;146606;582;47008;-69
2022/04/05 06:47:06;;;;;;;;;24.50;21.50;;;;;15.15;53.52;100819.44;146604;617;46915;-70
2022/04/05 06:49:58;;;;;;;;;71.67;61.33;;;;;15.32;53.63;100817.38;146607;575;46020;-68
2022/04/05 06:52:51;;;;;;;;;73.33;63.33;;;;;15.38;53.11;100808.00;146607;584;46016;-69
2022/04/05 06:55:44;;;;;;;;;66.00;51.25;;;;;15.47;53.32;100812.66;146607;636;46020;-68
2022/04/05 06:58:36;;;;;;;;;49.75;40.75;;;;;15.59;53.03;100805.22;146606;592;46010;-68
2022/04/05 07:01:28;;;;;;;;;34.75;29.75;;;;;15.69;52.26;100807.31;146605;573;46008;-70
2022/04/05 07:04:20;;;;;;;;;17.25;15.25;;;;;15.82;52.49;100818.16;146606;606;46914;-68
2022/04/05 07:07:12;;;;;;;;;17.50;16.00;;;;;15.91;51.87;100815.81;146608;588;46020;-68
2022/04/05 07:10:04;;;;;;;;;24.25;21.00;;;;;16.02;51.34;100813.56;146605;638;46010;-67
2022/04/05 07:12:56;;;;;;;;;21.00;18.75;;;;;16.11;51.17;100811.22;146607;581;47008;-67
2022/04/05 07:15:48;;;;;;;;;16.25;16.00;;;;;16.15;51.86;100806.13;146602;582;47012;-69
2022/04/05 07:18:41;;;;;;;;;12.25;10.25;;;;;16.15;52.18;100802.63;146606;657;46020;-68
2022/04/05 07:21:33;;;;;;;;;15.00;15.00;;;;;16.09;51.87;100795.47;146604;601;46016;-67
2022/04/05 07:24:26;;;;;;;;;13.50;11.50;;;;;16.09;51.91;100794.59;146606;583;46021;-68
2022/04/05 07:27:18;;;;;;;;;14.75;13.50;;;;;16.13;51.71;100791.22;146604;637;46010;-68
2022/04/05 07:30:12;;;;;;;;;17.75;14.50;;;;;16.22;51.89;100788.88;146605;598;46020;-68
2022/04/05 07:33:04;;;;;;;;;116.00;95.50;;;;;16.36;51.70;100792.78;146606;576;46017;-68
2022/04/05 07:35:56;;;;;;;;;18.25;16.75;;;;;16.52;51.44;100795.84;146612;576;46008;-68
2022/04/05 07:38:48;;;;;;;;;21.25;21.25;;;;;16.69;51.28;100805.03;146603;595;46915;-70
2022/04/05 07:41:40;;;;;;;;;12.50;11.50;;;;;16.82;50.13;100804.56;146608;681;46008;-69
2022/04/05 07:44:33;;;;;;;;;16.50;12.25;;;;;16.88;50.41;100809.06;146603;580;47010;-69
2022/04/05 07:47:25;;;;;;;;;10.25;8.75;;;;;16.90;50.74;100809.13;146607;579;46021;-69
2022/04/05 07:50:18;;;;;;;;;13.75;12.00;;;;;16.91;50.46;100801.28;146600;578;47012;-70
2022/04/05 07:53:09;;;;;;;;;10.00;8.50;;;;;16.92;50.59;100797.84;146609;578;46008;-71
2022/04/05 07:56:02;;;;;;;;;11.25;11.00;;;;;16.91;50.57;100805.66;146606;647;47012;-71
2022/04/05 07:58:54;;;;;;;;;10.50;9.75;;;;;16.89;50.13;100815.22;146601;592;47008;-71
2022/04/05 08:01:48;;;;;;;;;9.25;9.25;;;;;16.85;50.08;100815.12;146604;606;46032;-70
2022/04/05 08:04:40;;;;;;;;;11.00;9.75;;;;;16.78;50.64;100814.91;146607;625;46012;-70
2022/04/05 08:07:32;;;;;;;;;10.25;9.00;;;;;16.71;50.86;100810.31;146601;597;46016;-71
2022/04/05 08:10:25;;;;;;;;;10.75;10.00;;;;;16.67;51.43;100804.13;146607;597;46021;-70
2022/04/05 08:13:17;;;;;;;;;13.00;11.00;;;;;16.77;50.91;100793.09;146604;614;46010;-71
2022/04/05 08:16:10;;;;;;;;;11.50;9.00;;;;;16.95;51.47;100783.97;146608;590;46008;-70
2022/04/05 08:19:02;;;;;;;;;10.75;9.00;;;;;17.17;51.04;100790.63;146604;576;46016;-72
2022/04/05 08:21:54;;;;;;;;;12.25;11.25;;;;;17.48;48.83;100789.66;146608;615;46020;-70
2022/04/05 08:24:47;;;;;;;;;12.50;11.50;;;;;17.67;48.07;100793.59;146605;700;46016;-71
2022/04/05 08:27:39;;;;;;;;;14.00;10.00;;;;;17.64;49.05;100793.53;146606;590;46020;-71
2022/04/05 08:30:31;;;;;;;;;11.75;9.00;;;;;17.60;48.78;100786.41;146605;610;47011;-70
2022/04/05 08:33:23;;;;;;;;;9.50;8.00;;;;;17.49;47.93;100784.44;146605;626;46020;-70
2022/04/05 08:36:15;;;;;;;;;9.00;8.50;;;;;17.36;47.97;100781.50;146604;579;46010;-70
2022/04/05 08:39:08;;;;;;;;;9.25;9.00;;;;;17.14;48.66;100774.84;146604;636;46021;-70
2022/04/05 08:42:00;;;;;;;;;10.75;10.00;;;;;16.99;49.54;100772.69;146602;580;46016;-69
2022/04/05 08:44:53;;;;;;;;;13.50;10.00;;;;;16.92;50.38;100776.03;146607;608;47012;-70
2022/04/05 08:47:50;;;;;;;;;8.50;6.00;;;;;16.92;49.40;100779.53;146606;585;46010;-70
2022/04/05 08:50:42;;;;;;;;;11.75;10.75;;;;;16.91;49.64;100769.88;146604;564;47008;-69
2022/04/05 08:53:35;;;;;;;;;12.25;12.00;;;;;16.90;49.42;100765.47;146602;589;46017;-70
2022/04/05 08:56:30;;;;;;;;;13.25;11.50;;;;;16.86;50.42;100768.87;146604;607;46020;-71
2022/04/05 08:59:22;;;;;;;;;13.00;12.50;;;;;16.75;49.39;100781.66;146604;585;46914;-69
2022/04/05 09:02:14;;;;;;;;;13.00;11.00;;;;;16.62;49.21;100771.69;146608;583;46008;-70
2022/04/05 09:05:06;;;;;;;;;12.50;12.50;;;;;16.50;49.76;100774.84;146606;577;46914;-70
2022/04/05 09:08:14;;;;;;;;;15.75;13.50;;;;;16.37;50.11;100762.25;146624;632;46916;-70
2022/04/05 09:11:25;;;;;;;;;10.75;9.75;;;;;16.23;50.43;100758.34;146627;605;45016;-70
2022/04/05 09:14:17;;;;;;;;;11.25;8.00;;;;;16.17;50.52;100756.47;146628;580;45021;-71
2022/04/05 09:17:15;;;;;;;;;14.25;12.00;;;;;16.11;50.92;100758.91;146626;575;45016;-71
2022/04/05 09:20:08;;;;;;;;;15.50;13.50;;;;;16.04;51.62;100757.81;146629;569;45020;-70
2022/04/05 09:23:03;;;;;;;;;16.25;15.50;;;;;15.98;51.64;100755.03;146625;754;46010;-70
2022/04/05 09:26:06;;;;;;;;;11.25;11.25;;;;;15.93;51.43;100754.00;146628;601;46008;-70
2022/04/05 09:29:09;;;;;;;;;12.75;11.75;;;;;15.87;52.23;100756.44;146625;581;46016;-71
2022/04/05 09:32:01;;;;;;;;;14.25;13.25;;;;;15.83;52.19;100758.09;146628;613;46008;-71
2022/04/05 09:34:54;;;;;;;;;12.50;11.00;;;;;15.78;52.53;100764.88;146628;591;45010;-70
2022/04/05 09:37:47;;;;;;;;;13.75;11.50;;;;;15.75;52.92;100761.28;146630;611;45008;-70
2022/04/05 09:40:39;;;;;;;;;13.00;13.00;;;;;15.75;53.24;100758.69;146626;581;45016;-70
2022/04/05 09:43:31;;;;;;;;;13.75;13.00;;;;;15.72;52.98;100756.84;146630;575;46012;-71
2022/04/05 09:46:24;;;;;;;;;12.50;11.00;;;;;15.70;53.40;100755.94;146626;667;46010;-70
2022/04/05 09:49:17;;;;;;;;;14.50;13.75;;;;;15.65;53.26;100760.97;146629;569;45916;-70
2022/04/05 09:52:36;;;;;;;;;14.00;12.25;;;;;15.50;53.09;100757.00;146622;634;45017;-70
2022/04/05 09:55:30;;;;;;;;;12.75;10.50;;;;;15.46;54.51;100761.25;146625;571;46008;-70
2022/04/05 09:58:22;;;;;;;;;11.50;10.25;;;;;14.40;55.21;100585.44;146627;565;45914;-70
2022/04/05 10:01:14;;;;;;;;;13.75;12.00;;;;;15.27;55.59;100745.81;146628;688;45012;-70
2022/04/05 10:04:15;;;;;;;;;11.50;11.00;;;;;15.22;53.98;100756.97;146626;590;45914;-70
2022/04/05 10:07:08;;;;;;;;;12.50;12.50;;;;;15.17;55.29;100761.19;146615;636;46008;-70
2022/04/05 10:10:06;;;;;;;;;13.75;12.25;;;;;15.17;55.21;100757.66;146605;617;47010;-71
2022/04/05 10:12:58;;;;;;;;;11.50;9.75;;;;;15.20;55.20;100763.91;146607;571;46008;-70
2022/04/05 10:15:52;;;;;;;;;12.00;8.50;;;;;15.32;55.27;100765.13;146605;729;46016;-70
2022/04/05 10:18:44;;;;;;;;;14.25;13.00;;;;;15.39;54.96;100762.78;146606;630;47008;-71
2022/04/05 10:21:38;;;;;;;;;12.50;10.25;;;;;15.45;54.58;100759.44;146604;629;45915;-71
2022/04/05 10:24:31;;;;;;;;;11.50;11.00;;;;;15.51;54.77;100758.75;146605;580;46020;-70
2022/04/05 10:27:27;;;;;;;;;13.25;10.75;;;;;15.56;54.22;100758.06;146604;576;46017;-70
2022/04/05 10:30:44;;;;;;;;;12.75;10.75;;;;;15.58;54.20;100752.91;146607;577;46008;-72
2022/04/05 10:33:56;;;;;;;;;10.50;8.25;;;;;15.58;53.74;100751.19;146605;571;46016;-70
2022/04/05 10:37:10;;;;;;;;;14.00;12.00;;;;;15.63;53.39;100762.63;146607;635;46008;-71
2022/04/05 10:40:22;;;;;;;;;9.50;9.50;;;;;14.60;53.17;100566.97;146602;579;46010;-71
2022/04/05 10:43:24;;;;;;;;;13.25;11.25;;;;;15.72;54.05;100746.41;146605;614;47008;-71
2022/04/05 10:46:16;;;;;;;;;11.50;10.00;;;;;15.74;54.22;100739.50;146605;603;46010;-73
2022/04/05 10:49:08;;;;;;;;;13.00;12.75;;;;;15.73;54.85;100747.28;146605;591;47008;-73
2022/04/05 10:52:27;;;;;;;;;12.75;12.75;;;;;15.73;53.20;100756.00;146602;663;47010;-71
2022/04/05 10:55:20;;;;;;;;;10.25;10.25;;;;;15.77;54.17;100749.16;146607;585;47008;-71
2022/04/05 10:58:13;;;;;;;;;10.75;10.00;;;;;15.81;54.30;100738.84;146600;660;46016;-72
2022/04/05 11:01:18;;;;;;;;;9.00;8.25;;;;;15.89;53.71;100744.31;146609;604;46008;-70
2022/04/05 11:04:36;;;;;;;;;11.75;11.75;;;;;15.06;53.82;100579.75;146604;594;46016;-70
2022/04/05 11:07:29;;;;;;;;;11.00;10.00;;;;;16.08;53.16;100736.16;146606;566;47010;-71
2022/04/05 11:10:24;;;;;;;;;14.00;11.50;;;;;16.12;53.56;100737.12;146602;564;46016;-71
2022/04/05 11:13:34;;;;;;;;;12.00;10.25;;;;;16.22;52.69;100733.94;146605;588;46008;-70
2022/04/05 11:16:27;;;;;;;;;11.00;11.00;;;;;16.43;53.46;100736.25;146604;696;46016;-71
2022/04/05 11:19:19;;;;;;;;;16.25;15.00;;;;;16.62;54.16;100730.69;146607;712;46008;-70
2022/04/05 11:22:32;;;;;;;;;15.75;14.00;;;;;16.78;51.92;100721.53;146603;564;46017;-71
2022/04/05 11:25:34;;;;;;;;;13.25;11.75;;;;;16.89;52.18;100731.41;146604;579;46020;-70
2022/04/05 11:28:26;;;;;;;;;11.00;10.25;;;;;16.96;52.47;100733.34;146603;564;46016;-71
2022/04/05 11:31:35;;;;;;;;;12.75;11.75;;;;;16.98;51.71;100735.16;146607;604;45020;-71
2022/04/05 11:34:46;;;;;;;;;11.25;9.00;;;;;16.95;51.78;100729.84;146604;617;46010;-71
2022/04/05 11:37:38;;;;;;;;;14.00;14.00;;;;;16.94;54.26;100725.41;146608;589;47008;-71
2022/04/05 11:40:30;;;;;;;;;10.50;10.50;;;;;16.99;52.20;100722.94;146601;593;47012;-71
2022/04/05 11:43:28;;;;;;;;;15.00;14.25;;;;;17.02;51.31;100715.16;146605;571;47009;-71
2022/04/05 11:46:28;;;;;;;;;9.00;8.25;;;;;17.08;51.01;100718.81;146600;659;46016;-70
2022/04/05 11:49:20;;;;;;;;;13.50;12.75;;;;;17.20;51.55;100719.97;146606;592;46008;-71
2022/04/05 11:52:13;;;;;;;;;13.00;12.25;;;;;17.34;51.39;100715.03;146604;582;46016;-71
2022/04/05 11:58:38;;;;;;;;;9.25;9.00;;;;;17.61;49.54;100710.44;146602;640;46016;-70
2022/04/05 12:01:33;;;;;;;;;11.00;8.00;;;;;17.70;49.20;100700.16;146606;571;46025;-71
2022/04/05 12:04:26;;;;;;;;;13.50;12.00;;;;;17.80;50.23;100700.38;146602;579;46017;-71
2022/04/05 12:07:18;;;;;;;;;12.50;11.50;;;;;17.90;49.80;100694.47;146606;595;46020;-71
2022/04/05 12:10:10;;;;;;;;;16.00;13.50;;;;;18.03;49.46;100698.22;146600;625;46016;-71
2022/04/05 12:13:03;;;;;;;;;11.25;10.00;;;;;18.10;49.70;100700.12;146604;650;46008;-71
2022/04/05 12:16:02;;;;;;;;;12.25;11.25;;;;;18.10;49.60;100692.25;146604;606;47010;-70
2022/04/05 12:18:54;;;;;;;;;12.75;11.50;;;;;18.10;50.72;100685.28;146609;627;46020;-71
2022/04/05 12:21:46;;;;;;;;;14.00;13.50;;;;;18.08;49.77;100692.22;146604;604;47012;-71
2022/04/05 12:24:50;;;;;;;;;17.50;14.25;;;;;18.06;50.09;100683.44;146597;563;46020;-72
2022/04/05 12:27:42;;;;;;;;;24.25;18.75;;;;;18.03;50.04;100682.50;146602;635;46017;-70
2022/04/05 12:30:35;;;;;;;;;17.00;16.25;;;;;17.99;50.15;100690.28;146608;585;46008;-72
2022/04/05 12:33:30;;;;;;;;;18.50;17.00;;;;;17.83;49.84;100675.09;146605;601;46017;-70
2022/04/05 12:36:22;;;;;;;;;16.50;15.25;;;;;17.69;51.66;100679.12;146607;684;46008;-70
2022/04/05 12:39:26;;;;;;;;;18.50;18.00;;;;;17.58;51.01;100672.78;146602;632;46016;-71
2022/04/05 12:42:21;;;;;;;;;17.75;16.25;;;;;17.51;51.16;100679.62;146608;657;46008;-71
2022/04/05 12:45:14;;;;;;;;;16.50;13.50;;;;;17.43;51.11;100674.19;146602;691;46016;-71
2022/04/05 12:48:23;;;;;;;;;13.75;11.75;;;;;17.26;51.88;100663.34;146606;604;46013;-70
2022/04/05 12:51:16;;;;;;;;;11.75;10.75;;;;;17.13;51.87;100657.75;146601;569;46016;-71
2022/04/05 12:54:08;;;;;;;;;15.75;14.00;;;;;17.02;52.58;100655.78;146605;577;46020;-71
2022/04/05 12:57:27;;;;;;;;;13.25;11.00;;;;;16.94;51.17;100657.31;146605;570;46010;-71
2022/04/05 13:00:26;;;;;;;;;13.75;11.75;;;;;16.83;51.96;100664.03;146604;601;47008;-71
2022/04/05 13:03:18;;;;;;;;;14.50;12.75;;;;;16.71;52.56;100658.47;146599;567;47010;-71
2022/04/05 13:06:20;;;;;;;;;14.50;12.25;;;;;16.60;53.08;100656.47;146605;604;46008;-71
2022/04/05 13:09:17;;;;;;;;;13.25;12.25;;;;;16.54;53.33;100664.16;146602;594;47010;-72
2022/04/05 13:12:21;;;;;;;;;14.25;13.25;;;;;16.48;53.20;100657.84;146606;643;47008;-71
2022/04/05 13:15:15;;;;;;;;;14.50;11.50;;;;;16.49;54.08;100650.06;146602;574;46016;-72
2022/04/05 13:18:12;;;;;;;;;10.00;10.00;;;;;16.49;53.85;100647.44;146609;610;46021;-71